Terminal Aerodrome Forecast
Issued by NWS

Current Version | Previous Version | Graphics & Text | Print | Product List | Glossary On
Versions: 1 2 3 4 5 6 7 8 9 10 11 12 13 14 15 16 17 18 19
000
FTUS41 KPBZ 311700
TAFMGW
TAF
KMGW 311739Z 3118/0118 24006KT P6SM SCT030 BKN250
     FM010900 VRB03KT 5SM -SN BR OVC030
     FM011200 16004KT 2SM -SN BR OVC015=

USA.gov is the U.S. government's official web portal to all federal, state and local government web resources and services.